CMB814 Details

Departure: RAF Mildenhall (EGUN)
Arrival: Joint Base McGuire Dix Lakehurst (KWRI)
Notes: USTRANSCOM CONTRACT FLIGHT


Current Weather Information
EGUN 212156Z 32005KT 9999 CLR 14/14 A3008 RMK AO2A SLP189 T01350135 $
KWRI 212156Z AUTO 31016G21KT 10SM CLR 22/04 A2996 RMK AO2 SLP145 T02160037